Time;durP1;ratioP1;P1;durP2;ratioP2;P2;SDS_P1;SDS_P2;PMS_P1;PMS_P2;Temp;Humidity;BMP_temperature;BMP_pressure;BME280_temperature;BME280_humidity;BME280_pressure;Samples;Min_cycle;Max_cycle;Signal;HPM_P1;HPM_P2
2021/08/17 00:00:52;;;;;;;5.50;5.10;;;14.50;99.90;;;;;;6090253;23;20590;-86
2021/08/17 00:03:19;;;;;;;4.73;4.13;;;14.80;99.90;;;;;;6089550;23;20982;-87
2021/08/17 00:05:46;;;;;;;5.70;5.07;;;14.90;99.90;;;;;;6090406;23;20656;-87
2021/08/17 00:08:13;;;;;;;5.10;4.67;;;14.80;99.90;;;;;;6088912;23;20935;-87
2021/08/17 00:10:40;;;;;;;5.03;4.50;;;14.70;99.90;;;;;;6090201;23;20574;-86
2021/08/17 00:13:07;;;;;;;5.13;4.73;;;14.60;99.90;;;;;;6089404;23;20592;-87
2021/08/17 00:15:35;;;;;;;5.33;4.93;;;14.40;99.90;;;;;;6090384;23;20614;-87
2021/08/17 00:18:02;;;;;;;6.90;5.17;;;14.10;99.90;;;;;;6088907;23;20589;-86
2021/08/17 00:20:29;;;;;;;5.80;5.20;;;14.10;99.90;;;;;;6090016;23;20594;-86
2021/08/17 00:22:56;;;;;;;5.43;4.93;;;14.20;99.90;;;;;;6089223;23;21055;-86
2021/08/17 00:25:23;;;;;;;5.03;4.63;;;14.10;99.90;;;;;;6090484;23;20618;-87
2021/08/17 00:27:50;;;;;;;4.57;4.17;;;14.40;99.90;;;;;;6089506;23;20637;-87
2021/08/17 00:30:16;;;;;;;5.03;4.60;;;14.20;99.90;;;;;;6091156;23;20590;-87
2021/08/17 00:32:44;;;;;;;5.63;5.13;;;14.50;99.90;;;;;;6090793;23;20616;-87
2021/08/17 00:35:11;;;;;;;4.90;4.50;;;14.10;99.90;;;;;;6087607;23;20610;-87
2021/08/17 00:37:38;;;;;;;5.43;4.97;;;14.20;99.90;;;;;;6089067;23;20626;-87
2021/08/17 00:40:06;;;;;;;5.10;4.60;;;14.00;99.90;;;;;;6090107;23;20616;-87
2021/08/17 00:42:39;;;;;;;4.90;4.50;;;14.20;99.90;;;;;;6089291;23;20534;-87
2021/08/17 00:45:07;;;;;;;5.90;5.40;;;14.20;99.90;;;;;;6089021;23;21422;-86
2021/08/17 00:47:34;;;;;;;6.10;5.43;;;13.80;99.90;;;;;;6088591;23;20625;-86
2021/08/17 00:50:02;;;;;;;6.27;5.70;;;13.90;99.90;;;;;;6088693;23;20622;-86
2021/08/17 00:52:29;;;;;;;5.47;4.97;;;13.80;99.90;;;;;;6088257;23;20598;-86
2021/08/17 00:54:56;;;;;;;6.53;6.00;;;13.80;99.90;;;;;;6088737;23;20610;-87
2021/08/17 00:57:24;;;;;;;5.27;4.87;;;14.20;99.90;;;;;;6087910;23;21160;-87
2021/08/17 00:59:50;;;;;;;6.20;5.60;;;14.00;99.90;;;;;;6089334;23;20590;-87
2021/08/17 01:02:17;;;;;;;6.37;5.77;;;13.90;99.90;;;;;;6086911;23;20641;-86
2021/08/17 01:04:44;;;;;;;6.77;6.07;;;13.70;99.90;;;;;;6089114;23;20890;-86
2021/08/17 01:07:13;;;;;;;6.70;6.10;;;13.50;99.90;;;;;;6088018;23;20705;-86
2021/08/17 01:09:41;;;;;;;7.03;6.43;;;13.60;99.90;;;;;;6088118;23;20605;-86
2021/08/17 01:12:09;;;;;;;6.70;6.03;;;13.80;99.90;;;;;;6088976;23;20621;-87
2021/08/17 01:14:36;;;;;;;5.97;5.40;;;13.70;99.90;;;;;;6089763;23;21159;-87
2021/08/17 01:17:03;;;;;;;7.30;6.60;;;13.50;99.90;;;;;;6089428;23;21149;-86
2021/08/17 01:19:30;;;;;;;6.87;6.17;;;13.70;99.90;;;;;;6088430;23;21161;-86
2021/08/17 01:21:58;;;;;;;7.43;6.83;;;13.80;99.90;;;;;;6089359;23;20743;-87
2021/08/17 01:24:27;;;;;;;6.10;5.60;;;13.80;99.90;;;;;;6089623;23;20680;-86
2021/08/17 01:26:56;;;;;;;7.03;6.43;;;13.60;99.90;;;;;;6089062;23;20632;-87
2021/08/17 01:29:24;;;;;;;6.33;5.83;;;13.60;99.90;;;;;;6089022;23;20565;-86
2021/08/17 01:31:51;;;;;;;7.17;6.57;;;13.50;99.90;;;;;;6089509;23;20589;-86
2021/08/17 01:34:19;;;;;;;6.63;6.03;;;13.80;99.90;;;;;;6089283;23;20574;-86
2021/08/17 01:36:46;;;;;;;8.27;6.40;;;13.60;99.90;;;;;;6087922;23;20573;-86
2021/08/17 01:39:13;;;;;;;6.30;5.77;;;13.70;99.90;;;;;;6088617;23;20931;-86
2021/08/17 01:41:40;;;;;;;9.70;6.40;;;13.50;99.90;;;;;;6088820;23;20612;-86
2021/08/17 01:44:13;;;;;;;6.03;5.50;;;13.20;99.90;;;;;;6089274;23;20646;-86
2021/08/17 01:46:41;;;;;;;6.60;5.90;;;13.30;99.90;;;;;;6089763;23;20613;-86
2021/08/17 01:49:08;;;;;;;7.43;6.57;;;13.60;99.90;;;;;;6090130;23;20666;-86
2021/08/17 01:51:36;;;;;;;6.70;5.97;;;13.20;99.90;;;;;;6091033;23;20664;-86
2021/08/17 01:54:04;;;;;;;6.83;5.40;;;13.30;99.90;;;;;;6090694;23;20604;-86
2021/08/17 01:56:30;;;;;;;5.90;5.40;;;13.10;99.90;;;;;;6091075;23;20916;-87
2021/08/17 01:58:58;;;;;;;6.77;6.07;;;13.00;99.90;;;;;;6091175;23;20983;-86
2021/08/17 02:01:26;;;;;;;7.17;6.57;;;12.90;99.90;;;;;;6091111;23;20519;-86
2021/08/17 02:03:53;;;;;;;7.63;6.03;;;12.90;99.90;;;;;;6090749;23;20618;-86
2021/08/17 02:06:20;;;;;;;6.53;5.93;;;12.90;99.90;;;;;;6090495;23;20576;-86
2021/08/17 02:08:47;;;;;;;6.87;6.17;;;12.80;99.90;;;;;;6090833;23;20586;-86
2021/08/17 02:11:13;;;;;;;6.30;5.40;;;12.80;99.90;;;;;;6091302;23;21078;-87
2021/08/17 02:13:41;;;;;;;7.83;5.90;;;12.70;99.90;;;;;;6090744;23;20618;-86
2021/08/17 02:16:07;;;;;;;11.00;6.17;;;12.60;99.90;;;;;;6091123;23;20558;-87
2021/08/17 02:18:37;;;;;;;6.50;6.00;;;12.60;99.90;;;;;;6089873;23;20918;-86
2021/08/17 02:21:05;;;;;;;6.50;5.90;;;13.30;99.90;;;;;;6065090;23;21171;-86
2021/08/17 02:23:32;;;;;;;6.70;6.00;;;13.80;99.90;;;;;;6090269;23;20614;-86
2021/08/17 02:25:59;;;;;;;6.70;6.10;;;13.60;99.90;;;;;;6090852;23;20590;-87
2021/08/17 02:28:27;;;;;;;6.17;5.57;;;14.10;99.90;;;;;;6088586;23;20614;-87
2021/08/17 02:30:55;;;;;;;5.93;5.43;;;13.70;99.90;;;;;;6091049;23;20561;-87
2021/08/17 02:33:22;;;;;;;5.70;5.20;;;13.20;99.90;;;;;;6089805;23;20610;-86
2021/08/17 02:35:51;;;;;;;7.60;5.20;;;12.80;99.90;;;;;;6090026;23;20611;-85
2021/08/17 02:38:17;;;;;;;5.70;5.20;;;12.40;99.90;;;;;;6089063;23;20559;-87
2021/08/17 02:40:44;;;;;;;5.93;5.00;;;12.20;99.90;;;;;;6090926;23;20598;-87
2021/08/17 02:43:11;;;;;;;6.90;6.30;;;12.10;99.90;;;;;;6089656;23;21220;-87
2021/08/17 02:45:38;;;;;;;6.17;5.57;;;12.10;99.90;;;;;;6091129;23;20637;-86
2021/08/17 02:48:06;;;;;;;5.50;4.97;;;12.10;99.90;;;;;;6088577;23;20720;-87
2021/08/17 02:50:33;;;;;;;5.90;4.93;;;12.00;99.90;;;;;;6090198;23;20596;-86
2021/08/17 02:53:01;;;;;;;7.33;5.90;;;12.00;99.90;;;;;;6090316;23;20610;-86
2021/08/17 02:55:28;;;;;;;5.10;4.60;;;11.90;99.90;;;;;;6091329;23;20638;-86
2021/08/17 02:57:59;;;;;;;5.77;5.20;;;12.10;99.90;;;;;;6088920;23;20681;-86
2021/08/17 03:00:26;;;;;;;6.17;5.57;;;12.10;99.90;;;;;;6091067;23;20554;-87
2021/08/17 03:02:53;;;;;;;8.17;5.63;;;11.90;99.90;;;;;;6090469;23;20618;-86
2021/08/17 03:05:20;;;;;;;6.80;6.27;;;11.70;99.90;;;;;;6090472;23;20598;-86
2021/08/17 03:07:51;;;;;;;5.47;5.07;;;11.60;99.90;;;;;;6088838;23;20630;-87
2021/08/17 03:10:19;;;;;;;5.43;4.67;;;11.70;99.90;;;;;;6091107;23;20705;-86
2021/08/17 03:12:46;;;;;;;6.37;5.50;;;11.60;99.90;;;;;;6090482;23;20610;-86
2021/08/17 03:15:13;;;;;;;6.50;5.37;;;11.50;99.90;;;;;;6090276;23;21170;-87
2021/08/17 03:17:40;;;;;;;6.40;5.80;;;11.30;99.90;;;;;;6090352;23;20590;-86
2021/08/17 03:20:09;;;;;;;6.37;5.57;;;11.20;99.90;;;;;;6089741;23;20693;-87
2021/08/17 03:22:37;;;;;;;5.90;5.40;;;11.20;99.90;;;;;;6090126;23;20641;-86
2021/08/17 03:25:06;;;;;;;9.80;6.00;;;11.30;99.90;;;;;;6090508;23;20590;-86
2021/08/17 03:27:34;;;;;;;6.57;6.00;;;11.30;99.90;;;;;;6089702;23;20630;-86
2021/08/17 03:30:01;;;;;;;5.80;5.30;;;11.60;99.90;;;;;;6090304;23;20617;-86
2021/08/17 03:32:30;;;;;;;7.07;6.27;;;11.50;99.90;;;;;;6090297;23;20616;-86
2021/08/17 03:34:57;;;;;;;9.77;5.93;;;11.20;99.90;;;;;;6090149;23;21396;-86
2021/08/17 03:37:24;;;;;;;7.10;6.50;;;11.10;99.90;;;;;;6088311;23;20609;-86
2021/08/17 03:39:51;;;;;;;6.53;6.03;;;11.10;99.90;;;;;;6090453;23;20556;-86
2021/08/17 03:42:17;;;;;;;5.77;5.20;;;11.20;99.90;;;;;;6089612;23;20614;-86
2021/08/17 03:44:46;;;;;;;7.10;6.37;;;11.00;99.90;;;;;;6090002;23;20606;-86
2021/08/17 03:47:13;;;;;;;6.10;5.50;;;10.90;99.90;;;;;;6090066;23;20716;-86
2021/08/17 03:49:39;;;;;;;6.20;5.67;;;11.10;99.90;;;;;;6088905;23;21173;-87
2021/08/17 03:52:07;;;;;;;6.90;5.63;;;11.00;99.90;;;;;;6089971;23;20642;-87
2021/08/17 03:54:33;;;;;;;7.30;6.60;;;11.30;99.90;;;;;;6089835;23;20617;-87
2021/08/17 03:57:00;;;;;;;7.37;6.67;;;11.50;99.90;;;;;;6063931;23;20579;-87
2021/08/17 03:59:27;;;;;;;8.43;6.07;;;11.40;99.90;;;;;;6090138;23;21128;-87
2021/08/17 04:01:55;;;;;;;8.70;5.60;;;11.10;99.90;;;;;;6090820;23;20559;-87
2021/08/17 04:04:22;;;;;;;8.10;6.40;;;10.90;99.90;;;;;;6089654;23;20641;-87
2021/08/17 04:06:49;;;;;;;6.50;5.70;;;10.80;99.90;;;;;;6089470;23;20566;-87
2021/08/17 04:09:16;;;;;;;5.87;5.37;;;10.70;99.90;;;;;;6089282;23;20626;-87
2021/08/17 04:11:43;;;;;;;7.93;6.57;;;10.60;99.90;;;;;;6089614;23;20610;-87
2021/08/17 04:14:09;;;;;;;6.33;5.70;;;10.60;99.90;;;;;;6087431;23;20817;-86
2021/08/17 04:16:36;;;;;;;6.63;5.80;;;10.60;99.90;;;;;;6090433;23;20632;-87
2021/08/17 04:19:04;;;;;;;8.70;5.73;;;10.90;99.90;;;;;;6090332;23;20590;-86
2021/08/17 04:21:31;;;;;;;8.13;5.20;;;11.10;99.90;;;;;;6090029;23;20986;-89
2021/08/17 04:23:59;;;;;;;6.67;6.07;;;10.90;99.90;;;;;;6090245;23;20909;-90
2021/08/17 04:26:26;;;;;;;6.30;5.70;;;10.80;99.90;;;;;;6090281;23;20598;-89
2021/08/17 04:28:53;;;;;;;9.37;5.20;;;10.60;99.90;;;;;;6089740;23;20607;-89
2021/08/17 04:31:19;;;;;;;6.00;5.40;;;10.60;99.90;;;;;;6090609;23;20602;-87
2021/08/17 04:33:46;;;;;;;6.50;6.00;;;10.80;99.90;;;;;;6089917;23;20558;-87
2021/08/17 04:36:16;;;;;;;6.10;5.50;;;10.70;99.90;;;;;;6089844;23;20598;-87
2021/08/17 04:38:43;;;;;;;6.63;6.03;;;10.80;99.90;;;;;;6089408;23;20558;-86
2021/08/17 04:41:09;;;;;;;6.83;6.23;;;11.00;99.90;;;;;;6089701;23;20707;-89
2021/08/17 04:43:36;;;;;;;6.70;5.90;;;10.90;99.90;;;;;;6089915;23;20629;-86
2021/08/17 04:46:03;;;;;;;6.63;6.00;;;10.80;99.90;;;;;;6089423;23;20621;-86
2021/08/17 04:48:30;;;;;;;7.90;5.47;;;10.70;99.90;;;;;;6088654;23;20577;-86
2021/08/17 04:50:58;;;;;;;8.20;6.03;;;10.80;99.90;;;;;;6089785;23;20584;-87
2021/08/17 04:53:27;;;;;;;5.33;4.83;;;10.90;99.90;;;;;;6089113;23;21096;-89
2021/08/17 04:55:56;;;;;;;6.43;5.83;;;10.90;99.90;;;;;;6090904;23;20610;-86
2021/08/17 04:58:23;;;;;;;7.03;6.00;;;11.10;99.90;;;;;;6087608;23;20582;-88
2021/08/17 05:00:50;;;;;;;6.40;5.80;;;11.00;99.90;;;;;;6090327;23;20559;-88
2021/08/17 05:03:20;;;;;;;7.33;6.23;;;10.90;99.90;;;;;;6088833;23;20533;-88
2021/08/17 05:05:48;;;;;;;6.87;6.27;;;10.90;99.90;;;;;;6089731;23;20606;-88
2021/08/17 05:08:15;;;;;;;5.93;5.43;;;10.70;99.90;;;;;;6087779;23;20577;-88
2021/08/17 05:10:43;;;;;;;10.13;5.90;;;10.80;99.90;;;;;;6089854;23;20596;-89
2021/08/17 05:13:10;;;;;;;6.80;6.20;;;11.00;99.90;;;;;;6088450;23;20596;-88
2021/08/17 05:15:37;;;;;;;6.00;5.27;;;11.10;99.90;;;;;;6089927;23;20598;-90
2021/08/17 05:18:04;;;;;;;6.10;5.50;;;11.40;99.90;;;;;;6089878;23;20625;-88
2021/08/17 05:20:31;;;;;;;6.10;5.50;;;11.90;99.90;;;;;;6089210;23;20599;-89
2021/08/17 05:22:59;;;;;;;7.10;5.90;;;12.40;99.90;;;;;;6090012;23;20570;-89
2021/08/17 05:25:26;;;;;;;7.30;5.50;;;12.30;99.90;;;;;;6091170;23;20680;-89
2021/08/17 05:27:54;;;;;;;6.80;6.10;;;11.70;99.90;;;;;;6090219;23;20658;-90
2021/08/17 05:30:22;;;;;;;6.97;5.47;;;11.60;99.90;;;;;;6091969;23;21016;-89
2021/08/17 05:32:51;;;;;;;6.83;5.80;;;11.50;99.90;;;;;;6090924;23;20625;-90
2021/08/17 05:35:20;;;;;;;5.37;4.97;;;11.60;99.90;;;;;;6091686;23;20567;-89
2021/08/17 05:37:47;;;;;;;6.03;5.37;;;11.70;99.90;;;;;;6090536;23;20958;-89
2021/08/17 05:40:14;;;;;;;6.80;6.10;;;11.60;99.90;;;;;;6092457;23;20676;-89
2021/08/17 05:42:41;;;;;;;7.23;5.77;;;11.60;99.90;;;;;;6091426;23;20609;-89
2021/08/17 05:45:11;;;;;;;8.70;6.70;;;11.50;99.90;;;;;;6092277;23;20709;-89
2021/08/17 05:47:43;;;;;;;5.23;4.73;;;11.50;99.90;;;;;;6091575;23;20594;-89
2021/08/17 05:50:13;;;;;;;5.10;4.40;;;12.10;99.90;;;;;;6091968;23;20586;-89
2021/08/17 05:52:40;;;;;;;6.30;5.80;;;13.00;99.90;;;;;;6091905;23;21137;-89
2021/08/17 05:55:09;;;;;;;6.60;5.90;;;13.10;99.90;;;;;;6091791;23;21226;-89
2021/08/17 05:57:36;;;;;;;6.63;6.00;;;12.60;99.90;;;;;;6090928;23;20594;-89
2021/08/17 06:00:04;;;;;;;6.70;6.10;;;12.80;99.90;;;;;;6092033;23;20600;-89
2021/08/17 06:02:32;;;;;;;5.73;5.13;;;12.80;99.90;;;;;;6091768;23;20589;-89
2021/08/17 06:04:59;;;;;;;9.50;7.63;;;12.80;99.90;;;;;;6091576;23;21123;-89
2021/08/17 06:07:26;;;;;;;7.63;6.90;;;13.20;99.90;;;;;;6090795;23;20693;-89
2021/08/17 06:09:53;;;;;;;5.70;4.83;;;13.10;99.90;;;;;;6091954;23;20644;-89
2021/08/17 06:12:20;;;;;;;6.57;5.97;;;13.50;99.90;;;;;;6091447;23;20617;-89
2021/08/17 06:14:47;;;;;;;5.70;5.13;;;13.60;99.90;;;;;;6092038;23;20578;-89
2021/08/17 06:17:14;;;;;;;8.03;6.00;;;13.80;99.90;;;;;;6091641;23;20697;-89
2021/08/17 06:19:43;;;;;;;10.23;6.10;;;13.60;99.90;;;;;;6090668;23;20613;-89
2021/08/17 06:22:09;;;;;;;5.50;4.90;;;13.70;99.90;;;;;;6091438;23;20628;-90
2021/08/17 06:24:36;;;;;;;4.20;3.80;;;14.10;99.90;;;;;;6092129;23;20682;-89
2021/08/17 06:27:04;;;;;;;4.90;4.50;;;15.10;99.90;;;;;;6091362;23;20717;-90
2021/08/17 06:29:31;;;;;;;5.37;4.87;;;15.80;99.90;;;;;;6090868;23;21238;-89
2021/08/17 06:31:59;;;;;;;6.30;4.93;;;16.00;99.90;;;;;;6092393;23;20558;-88
2021/08/17 06:34:26;;;;;;;6.43;5.10;;;15.40;99.90;;;;;;6090493;23;20585;-89
2021/08/17 06:36:55;;;;;;;8.07;4.63;;;14.90;99.90;;;;;;6090484;23;21024;-88
2021/08/17 06:39:22;;;;;;;5.47;4.23;;;14.70;99.90;;;;;;6091180;23;20561;-90
2021/08/17 06:41:49;;;;;;;6.47;4.40;;;14.90;99.90;;;;;;6091031;23;20677;-89
2021/08/17 06:44:16;;;;;;;6.27;4.63;;;15.10;99.90;;;;;;6091168;23;20677;-89
2021/08/17 06:46:43;;;;;;;5.50;4.07;;;15.60;99.90;;;;;;6090436;23;20625;-89
2021/08/17 06:49:10;;;;;;;5.37;4.87;;;15.30;99.90;;;;;;6089932;23;20641;-89
2021/08/17 06:51:37;;;;;;;5.70;5.20;;;15.30;99.90;;;;;;6090733;23;21014;-89
2021/08/17 06:54:08;;;;;;;10.13;5.07;;;15.30;99.90;;;;;;6090257;23;20641;-88
2021/08/17 06:56:35;;;;;;;6.27;5.67;;;15.10;99.90;;;;;;6090740;23;20523;-89
2021/08/17 06:59:03;;;;;;;8.17;5.03;;;15.10;99.90;;;;;;6090858;23;20693;-87
2021/08/17 07:01:29;;;;;;;7.40;5.87;;;14.50;99.90;;;;;;6090647;23;21021;-88
2021/08/17 07:03:58;;;;;;;9.10;6.13;;;14.40;99.90;;;;;;6089906;23;20578;-89
2021/08/17 07:06:26;;;;;;;7.60;6.10;;;14.40;99.90;;;;;;6090351;23;20629;-88
2021/08/17 07:08:54;;;;;;;6.10;5.50;;;14.30;99.90;;;;;;6090476;23;20634;-88
2021/08/17 07:11:22;;;;;;;7.17;5.97;;;14.30;99.90;;;;;;6091602;23;20625;-88
2021/08/17 07:13:49;;;;;;;27.13;7.63;;;14.40;99.90;;;;;;6091754;23;20585;-90
2021/08/17 07:16:17;;;;;;;8.67;6.00;;;15.20;99.90;;;;;;6091346;23;20597;-89
2021/08/17 07:18:44;;;;;;;16.13;6.53;;;14.90;99.90;;;;;;6090335;23;21183;-88
2021/08/17 07:21:11;;;;;;;7.10;5.13;;;15.90;99.90;;;;;;6091608;23;20747;-89
2021/08/17 07:23:38;;;;;;;6.70;6.10;;;15.80;99.90;;;;;;6091836;23;20590;-89
2021/08/17 07:26:12;;;;;;;6.93;5.33;;;15.30;99.90;;;;;;6091763;23;20677;-88
2021/08/17 07:28:40;;;;;;;6.67;5.77;;;15.00;99.90;;;;;;6091072;23;21317;-89
2021/08/17 07:31:07;;;;;;;7.63;6.83;;;15.20;99.90;;;;;;6092737;23;21290;-88
2021/08/17 07:33:34;;;;;;;7.47;6.20;;;15.30;99.90;;;;;;6091946;23;21216;-88
2021/08/17 07:36:01;;;;;;;6.33;5.40;;;15.20;99.90;;;;;;6095391;23;20583;-88
2021/08/17 07:38:28;;;;;;;7.57;6.63;;;15.40;99.90;;;;;;6100965;23;20637;-88
2021/08/17 07:40:55;;;;;;;7.47;6.23;;;15.50;99.90;;;;;;6095544;23;20618;-90
2021/08/17 07:43:30;;;;;;;6.40;5.80;;;16.20;99.90;;;;;;6094052;23;21237;-88
2021/08/17 07:45:59;;;;;;;7.30;6.40;;;15.70;99.90;;;;;;6101802;23;20636;-89
2021/08/17 07:48:28;;;;;;;7.20;6.60;;;15.60;99.90;;;;;;6089799;23;20625;-89
2021/08/17 07:50:55;;;;;;;6.90;5.67;;;15.50;99.90;;;;;;6090154;23;20586;-88
2021/08/17 07:53:22;;;;;;;6.30;5.67;;;15.40;99.90;;;;;;6089770;23;20641;-89
2021/08/17 07:55:49;;;;;;;7.23;5.53;;;15.30;99.90;;;;;;6091167;23;20673;-88
2021/08/17 07:58:18;;;;;;;6.23;5.63;;;15.30;99.90;;;;;;6089461;23;20601;-89
2021/08/17 08:00:45;;;;;;;6.43;5.77;;;15.40;99.90;;;;;;6090311;23;20636;-89
2021/08/17 08:03:13;;;;;;;6.43;5.93;;;15.50;99.90;;;;;;6090306;23;20565;-90
2021/08/17 08:05:40;;;;;;;6.53;5.93;;;15.60;99.90;;;;;;6091571;23;20669;-89
2021/08/17 08:08:07;;;;;;;6.23;5.10;;;15.80;99.90;;;;;;6088458;23;20656;-88
2021/08/17 08:10:34;;;;;;;6.67;5.77;;;15.60;99.90;;;;;;6091111;23;20622;-88
2021/08/17 08:13:01;;;;;;;6.63;5.90;;;15.50;99.90;;;;;;6089324;23;20617;-88
2021/08/17 08:15:28;;;;;;;6.27;5.67;;;15.40;99.90;;;;;;6092748;23;20646;-88
2021/08/17 08:17:57;;;;;;;6.53;4.73;;;15.40;99.90;;;;;;6089128;23;20626;-88
2021/08/17 08:20:27;;;;;;;5.20;4.70;;;15.40;99.90;;;;;;6089872;23;21351;-88
2021/08/17 08:22:56;;;;;;;6.23;5.70;;;15.50;99.90;;;;;;6089041;23;20701;-89
2021/08/17 08:25:23;;;;;;;5.80;5.33;;;15.50;99.90;;;;;;6090659;23;20566;-88
2021/08/17 08:27:50;;;;;;;6.23;5.73;;;16.00;99.90;;;;;;6089022;23;20610;-89
2021/08/17 08:30:18;;;;;;;6.03;5.40;;;16.30;99.90;;;;;;6089161;23;20645;-89
2021/08/17 08:32:45;;;;;;;6.83;6.23;;;16.30;99.90;;;;;;6089724;23;20697;-90
2021/08/17 08:35:14;;;;;;;5.90;5.20;;;16.50;99.90;;;;;;6089717;23;20597;-89
2021/08/17 08:37:42;;;;;;;5.50;5.00;;;16.30;99.90;;;;;;6089267;23;20578;-89
2021/08/17 08:40:12;;;;;;;6.57;5.53;;;16.30;99.90;;;;;;6090551;23;20610;-88
2021/08/17 08:42:39;;;;;;;6.27;5.67;;;16.40;99.90;;;;;;6090402;23;20597;-90
2021/08/17 08:45:07;;;;;;;6.40;5.83;;;16.60;99.90;;;;;;6090652;23;20616;-89
2021/08/17 08:47:35;;;;;;;6.27;5.63;;;16.50;99.90;;;;;;6089745;23;20586;-89
2021/08/17 08:50:03;;;;;;;5.80;5.30;;;16.60;99.90;;;;;;6090002;23;20634;-88
2021/08/17 08:52:30;;;;;;;5.97;5.40;;;16.80;99.90;;;;;;6089995;23;20590;-89
2021/08/17 08:55:01;;;;;;;8.03;5.33;;;16.70;99.90;;;;;;6090981;23;21206;-89
2021/08/17 08:57:27;;;;;;;6.20;5.60;;;16.70;99.90;;;;;;6091079;23;20589;-89
2021/08/17 08:59:55;;;;;;;9.87;5.73;;;16.90;99.90;;;;;;6091967;23;20705;-89
2021/08/17 09:02:27;;;;;;;6.97;5.33;;;17.00;99.90;;;;;;6092983;23;20586;-88
2021/08/17 09:04:56;;;;;;;7.77;5.80;;;17.10;99.90;;;;;;6092653;23;20549;-89
2021/08/17 09:07:38;;;;;;;6.30;5.70;;;16.90;99.90;;;;;;6091443;23;20572;-89
2021/08/17 09:10:09;;;;;;;6.23;5.63;;;17.20;99.90;;;;;;6092374;23;20606;-89
2021/08/17 09:12:37;;;;;;;5.90;5.30;;;17.30;99.90;;;;;;6067035;23;20597;-89
2021/08/17 09:15:14;;;;;;;6.87;5.43;;;17.50;99.90;;;;;;6092725;23;20621;-88
2021/08/17 09:17:42;;;;;;;6.00;5.37;;;18.10;99.90;;;;;;6091077;23;20609;-88
2021/08/17 09:20:14;;;;;;;6.70;5.73;;;17.90;99.90;;;;;;6092034;23;20915;-88
2021/08/17 09:22:42;;;;;;;6.43;5.83;;;17.80;99.90;;;;;;6091554;23;20589;-88
2021/08/17 09:25:11;;;;;;;7.13;6.40;;;17.30;99.90;;;;;;6092460;23;20585;-88
2021/08/17 09:27:39;;;;;;;7.07;5.80;;;17.40;99.90;;;;;;6091572;23;20602;-88
2021/08/17 09:30:10;;;;;;;6.93;5.27;;;17.70;99.90;;;;;;6092062;23;20610;-88
2021/08/17 09:32:52;;;;;;;6.80;6.10;;;17.60;99.90;;;;;;6092132;23;21152;-89
2021/08/17 09:35:20;;;;;;;5.87;5.40;;;17.70;99.90;;;;;;6092202;23;20597;-89
2021/08/17 09:38:05;;;;;;;6.47;5.40;;;18.20;99.90;;;;;;6089771;23;20648;-88
2021/08/17 09:40:33;;;;;;;5.37;4.87;;;17.90;98.90;;;;;;6090999;23;21170;-88
2021/08/17 09:43:13;;;;;;;7.33;6.60;;;17.90;97.20;;;;;;6091191;23;20689;-89
2021/08/17 09:45:40;;;;;;;10.20;9.03;;;17.70;99.00;;;;;;6092511;23;20558;-88
2021/08/17 09:48:08;;;;;;;6.63;5.70;;;17.60;98.60;;;;;;6090665;23;20729;-88
2021/08/17 09:50:38;;;;;;;9.93;7.53;;;17.70;99.90;;;;;;6091837;23;20950;-88
2021/08/17 09:53:08;;;;;;;6.87;5.20;;;17.90;98.60;;;;;;6090951;23;20617;-89
2021/08/17 09:55:42;;;;;;;8.80;7.90;;;17.90;96.90;;;;;;6093081;23;21238;-89
2021/08/17 09:58:25;;;;;;;6.53;5.77;;;18.10;98.50;;;;;;6089133;23;20614;-89
2021/08/17 10:00:58;;;;;;;5.40;4.90;;;18.10;97.40;;;;;;6090666;23;20574;-89
2021/08/17 10:03:28;;;;;;;7.13;5.47;;;18.30;96.90;;;;;;6088427;23;20582;-89
2021/08/17 10:05:55;;;;;;;4.80;4.30;;;18.20;96.10;;;;;;6089924;23;20526;-89
2021/08/17 10:08:23;;;;;;;6.03;5.43;;;18.20;94.40;;;;;;6087847;23;20953;-88
2021/08/17 10:10:54;;;;;;;5.30;4.80;;;18.30;95.50;;;;;;6090691;23;20709;-89
2021/08/17 10:13:23;;;;;;;5.57;4.80;;;18.60;93.70;;;;;;6089012;23;21005;-89
2021/08/17 10:15:52;;;;;;;4.50;4.10;;;18.90;95.30;;;;;;6089629;23;20634;-89
2021/08/17 10:18:23;;;;;;;5.40;4.63;;;18.60;92.60;;;;;;6088445;23;20621;-88
2021/08/17 10:20:55;;;;;;;5.13;4.50;;;18.80;93.70;;;;;;6089230;23;20531;-89
2021/08/17 10:23:24;;;;;;;4.87;4.47;;;18.80;93.30;;;;;;6096246;23;20693;-89
2021/08/17 10:25:53;;;;;;;5.43;4.70;;;18.50;93.70;;;;;;6091783;23;20593;-89
2021/08/17 10:28:33;;;;;;;4.57;4.17;;;18.60;94.20;;;;;;6088856;23;20637;-89
2021/08/17 10:31:26;;;;;;;4.57;4.17;;;18.60;95.10;;;;;;6089557;23;20672;-89
2021/08/17 10:33:55;;;;;;;4.63;4.13;;;18.60;92.70;;;;;;6089738;23;20558;-89
2021/08/17 10:36:36;;;;;;;4.80;4.40;;;18.60;92.90;;;;;;6086696;23;20978;-90
2021/08/17 10:39:05;;;;;;;5.20;4.70;;;18.60;91.10;;;;;;6089010;23;20669;-89
2021/08/17 10:41:39;;;;;;;5.73;4.27;;;18.70;89.00;;;;;;6087805;23;20692;-89
2021/08/17 10:44:12;;;;;;;4.77;3.60;;;18.70;89.60;;;;;;6088079;23;20585;-89
2021/08/17 10:46:47;;;;;;;5.23;4.17;;;18.80;90.40;;;;;;6087778;23;20528;-89
2021/08/17 10:49:43;;;;;;;4.13;3.73;;;19.20;86.80;;;;;;6086443;23;20645;-90
2021/08/17 10:52:12;;;;;;;4.50;3.80;;;19.70;90.50;;;;;;6087008;23;20578;-89
2021/08/17 10:54:40;;;;;;;4.60;4.20;;;19.80;85.60;;;;;;6087694;23;20960;-89
2021/08/17 10:57:20;;;;;;;5.33;4.83;;;20.20;89.20;;;;;;6087188;23;20601;-89
2021/08/17 10:59:49;;;;;;;4.57;3.73;;;20.00;85.90;;;;;;6088403;23;20634;-89
2021/08/17 11:02:22;;;;;;;4.50;4.10;;;20.50;85.90;;;;;;6089411;23;20567;-90
2021/08/17 11:04:50;;;;;;;4.43;3.20;;;20.90;87.50;;;;;;6087386;23;20621;-89
2021/08/17 11:07:32;;;;;;;4.17;3.77;;;21.40;83.00;;;;;;6087941;23;20523;-89
2021/08/17 11:10:01;;;;;;;4.60;3.90;;;21.50;81.80;;;;;;6088421;23;20972;-89
2021/08/17 11:12:35;;;;;;;4.60;4.20;;;21.60;81.90;;;;;;6088234;23;20611;-89
2021/08/17 11:15:04;;;;;;;4.53;3.90;;;21.50;83.00;;;;;;6090025;23;20829;-89
2021/08/17 11:17:31;;;;;;;5.47;4.80;;;21.70;80.80;;;;;;6088292;23;20596;-90
2021/08/17 11:19:58;;;;;;;3.80;3.40;;;21.90;83.80;;;;;;6087935;23;20730;-90
2021/08/17 11:22:28;;;;;;;4.87;4.23;;;22.40;86.50;;;;;;6087663;23;21108;-89
2021/08/17 11:24:57;;;;;;;6.40;4.27;;;22.60;80.50;;;;;;6089834;23;20928;-89
2021/08/17 11:27:26;;;;;;;5.30;4.77;;;22.30;78.60;;;;;;6086899;23;20920;-89
2021/08/17 11:29:56;;;;;;;3.93;3.53;;;21.90;78.30;;;;;;6088461;23;20681;-88
2021/08/17 11:32:29;;;;;;;4.23;3.60;;;21.50;78.20;;;;;;6089175;23;20654;-90
2021/08/17 11:34:59;;;;;;;4.37;3.97;;;21.60;81.40;;;;;;6088286;23;21019;-90
2021/08/17 11:37:28;;;;;;;4.63;4.13;;;22.30;82.20;;;;;;6087141;23;20550;-90
2021/08/17 11:39:56;;;;;;;4.90;4.47;;;22.70;79.00;;;;;;6088239;23;20633;-90
2021/08/17 11:42:24;;;;;;;3.70;3.03;;;23.20;75.20;;;;;;6086345;23;20645;-89
2021/08/17 11:44:56;;;;;;;5.50;4.97;;;23.70;73.10;;;;;;6086236;23;21191;-89
2021/08/17 11:47:23;;;;;;;5.83;4.10;;;23.30;72.20;;;;;;6085871;23;20596;-89
2021/08/17 11:49:52;;;;;;;4.80;4.20;;;22.90;72.30;;;;;;6086442;23;20638;-90
2021/08/17 11:52:21;;;;;;;3.00;2.70;;;22.80;71.30;;;;;;6086053;23;20567;-90
2021/08/17 11:55:01;;;;;;;4.20;3.23;;;22.60;66.70;;;;;;6087910;23;20677;-91
2021/08/17 11:57:31;;;;;;;3.33;2.57;;;23.20;68.50;;;;;;6085979;23;20586;-90
2021/08/17 12:00:08;;;;;;;3.30;2.70;;;23.60;69.30;;;;;;6086758;23;20614;-89
2021/08/17 12:02:35;;;;;;;4.63;3.10;;;23.70;66.70;;;;;;6089066;23;20633;-89
2021/08/17 12:05:31;;;;;;;;;;;;;;;;;;;;;
2021/08/17 12:07:59;;;;;;;3.43;3.13;;;24.00;68.20;;;;;;6086329;23;20907;-89
2021/08/17 12:10:28;;;;;;;3.93;3.60;;;24.60;65.40;;;;;;6088691;23;20681;-90
2021/08/17 12:13:04;;;;;;;4.83;3.60;;;24.30;63.80;;;;;;6088774;23;21144;-91
2021/08/17 12:16:11;;;;;;;5.07;3.47;;;24.50;65.70;;;;;;6089533;23;20669;-91
2021/08/17 12:21:26;;;;;;;3.50;3.20;;;26.20;66.30;;;;;;6084806;23;20626;-90
2021/08/17 12:23:53;;;;;;;3.20;2.90;;;25.80;59.20;;;;;;6087794;23;20688;-90
2021/08/17 12:26:23;;;;;;;3.80;2.83;;;25.40;59.40;;;;;;6088294;23;20649;-90
2021/08/17 12:29:18;;;;;;;3.30;2.63;;;25.00;58.60;;;;;;6088055;23;20625;-91
2021/08/17 12:32:16;;;;;;;3.37;3.00;;;25.30;60.30;;;;;;6088610;23;21186;-91
2021/08/17 12:34:50;;;;;;;3.17;2.87;;;26.30;58.70;;;;;;6082628;23;21042;-90
2021/08/17 12:37:50;;;;;;;;;;;;;;;;;;;;;
2021/08/17 12:40:17;;;;;;;2.97;2.67;;;26.40;58.30;;;;;;6088771;23;20653;-90
2021/08/17 12:42:46;;;;;;;3.03;2.83;;;27.10;58.10;;;;;;6089611;23;20593;-93
2021/08/17 12:45:40;;;;;;;12.93;3.90;;;26.90;57.80;;;;;;6090622;23;21072;-92
2021/08/17 13:20:14;;;;;;;5.17;4.67;;;27.50;55.00;;;;;;6059960;23;20710;-87
2021/08/17 13:22:42;;;;;;;5.30;4.80;;;26.60;54.80;;;;;;6060183;23;20566;-87
2021/08/17 13:25:22;;;;;;;4.60;4.20;;;25.60;55.50;;;;;;6061400;23;20694;-87
2021/08/17 13:27:57;;;;;;;4.47;4.07;;;25.40;56.60;;;;;;6059655;23;20646;-87
2021/08/17 13:30:28;;;;;;;6.60;3.53;;;24.70;56.40;;;;;;6031899;23;20659;-87
2021/08/17 13:32:59;;;;;;;4.47;4.07;;;24.60;56.60;;;;;;6031925;23;20578;-88